首页
METAR-TAF:

METAR-TAF

机场 :

乌鲁木齐地窝堡国际机场

乌鲁木齐, 中华人民共和国

纬度: 43-54N, 经度: 087-28E, 海拔: 654米

当前天气观测

该预报发布于21分钟前的20:30 UTC
风速2节,风向多变
温度 25°C
湿度 50%
气压 1010 hPa
能见度10公里或以上
1500米以下无云,无积雨云

METAR: ZWWW 192030Z VRB01MPS CAVOK 25/14 Q1010 NOSIG

时间: 02:51 (20:51 UTC)

预报

该预报发布于5小时和16分钟前的15:35 UTC
预报有效从19日的 18点(UTC)到 20日的 18点(UTC)
风速8节,风向
能见度10公里或以上
1500米以下无云,无积雨云
成为
从 20日的 02点(UTC)到 20日的 03点(UTC)
风速8节,风向
成为
从 20日的 13点(UTC)到 20日的 14点(UTC)
风速8节,风向

TAF: ZWWW 191535Z 1918/2018 18004MPS CAVOK TX34/2009Z TN22/1923Z BECMG 2002/2003 36004MPS BECMG 2013/2014 18004MPS

超过4000个机场的气象观测和天气预报(METAR&TAF报告)。

可查询的气象台以黄色和红色小点在地图上表示。

将鼠标移到小点上方,可查看气象台名称。

然后点击查看天气观测和预报。

如需切换地图:点击带黑十字的绿色按钮放大地图;点击带横线的绿色按钮缩小地图;或者点击绿色箭头查看邻近地区的地图。


METAR-TAF: